createdAt,value
2017-12-16T00:01:38.186Z,2.35
2017-12-16T00:04:07.900Z,3.90
2017-12-16T00:06:36.884Z,3.40
2017-12-16T00:09:06.563Z,2.50
2017-12-16T00:11:35.258Z,3.15
2017-12-16T00:14:03.428Z,3.50
2017-12-16T00:16:31.662Z,3.58
2017-12-16T00:19:00.741Z,3.97
2017-12-16T00:21:28.882Z,4.03
2017-12-16T00:23:57.998Z,4.62
2017-12-16T00:26:26.183Z,3.15
2017-12-16T00:28:55.868Z,4.12
2017-12-16T00:31:24.919Z,3.20
2017-12-16T00:33:53.070Z,3.05
2017-12-16T00:36:21.335Z,3.22
2017-12-16T00:38:49.497Z,2.25
2017-12-16T00:41:17.676Z,2.62
2017-12-16T00:43:45.829Z,3.53
2017-12-16T00:46:14.013Z,3.35
2017-12-16T00:48:42.170Z,2.97
2017-12-16T00:51:10.325Z,4.75
2017-12-16T00:53:38.491Z,5.30
2017-12-16T00:56:07.002Z,5.20
2017-12-16T00:58:35.202Z,5.35
2017-12-16T01:01:04.406Z,5.45
2017-12-16T01:03:33.395Z,4.07
2017-12-16T01:06:01.666Z,3.78
2017-12-16T01:08:29.828Z,3.60
2017-12-16T01:11:00.152Z,4.12
2017-12-16T01:13:29.074Z,2.45
2017-12-16T01:15:57.235Z,3.00
2017-12-16T01:18:25.447Z,5.80
2017-12-16T01:20:54.109Z,4.37
2017-12-16T01:23:22.514Z,3.85
2017-12-16T01:25:50.756Z,4.90
2017-12-16T01:28:19.913Z,5.10
2017-12-16T01:30:48.078Z,4.85
2017-12-16T01:33:16.243Z,5.50
2017-12-16T01:35:56.301Z,3.72
2017-12-16T01:38:44.154Z,4.72
2017-12-16T01:41:12.306Z,4.28
2017-12-16T01:43:41.221Z,4.85
2017-12-16T01:46:09.373Z,3.65
2017-12-16T01:48:37.535Z,3.90
2017-12-16T01:51:05.764Z,4.20
2017-12-16T01:53:34.679Z,3.65
2017-12-16T01:56:03.425Z,3.55
2017-12-16T01:58:32.365Z,3.60
2017-12-16T02:01:00.538Z,3.10
2017-12-16T02:03:28.710Z,3.62
2017-12-16T02:05:58.293Z,3.10
2017-12-16T02:08:27.201Z,3.75
2017-12-16T02:10:55.378Z,4.35
2017-12-16T02:13:25.300Z,2.97
2017-12-16T02:15:53.560Z,3.20
2017-12-16T02:18:22.175Z,3.78
2017-12-16T02:20:50.313Z,5.28
2017-12-16T02:23:19.381Z,3.80
2017-12-16T02:25:47.542Z,4.72
2017-12-16T02:28:16.246Z,4.65
2017-12-16T02:30:44.394Z,5.00
2017-12-16T02:33:13.255Z,7.43
2017-12-16T02:35:44.410Z,12.13
2017-12-16T02:38:12.566Z,10.32
2017-12-16T02:40:41.172Z,8.55
2017-12-16T02:43:09.318Z,7.22
2017-12-16T02:45:38.382Z,7.55
2017-12-16T02:48:07.310Z,6.53
2017-12-16T02:50:35.475Z,5.20
2017-12-16T02:53:03.624Z,4.65
2017-12-16T02:55:31.922Z,6.28
2017-12-16T02:58:00.078Z,6.60
2017-12-16T03:00:28.994Z,6.37
2017-12-16T03:02:57.148Z,6.43
2017-12-16T03:05:25.424Z,6.55
2017-12-16T03:07:53.586Z,6.95
2017-12-16T03:10:21.750Z,6.87
2017-12-16T03:12:49.919Z,6.68
2017-12-16T03:15:18.696Z,6.70
2017-12-16T03:17:47.740Z,7.85
2017-12-16T03:20:17.382Z,8.80
2017-12-16T03:22:45.531Z,7.55
2017-12-16T03:25:21.427Z,9.43
2017-12-16T03:27:51.201Z,10.55
2017-12-16T03:30:19.363Z,9.25
2017-12-16T03:32:48.321Z,11.35
2017-12-16T03:35:16.649Z,11.57
2017-12-16T03:37:44.815Z,11.15
2017-12-16T03:40:12.993Z,10.75
2017-12-16T03:42:42.328Z,10.80
2017-12-16T03:45:14.857Z,11.00
2017-12-16T03:47:43.004Z,11.00
2017-12-16T03:50:12.030Z,10.95
2017-12-16T03:52:40.178Z,10.95
2017-12-16T03:55:09.286Z,11.38
2017-12-16T03:57:38.214Z,10.85
2017-12-16T04:00:07.069Z,9.65
2017-12-16T04:02:35.651Z,9.18
2017-12-16T04:05:05.572Z,9.50
2017-12-16T04:07:33.749Z,8.20
2017-12-16T04:10:01.904Z,8.60
2017-12-16T04:12:30.057Z,8.20
2017-12-16T04:14:58.277Z,7.32
2017-12-16T04:17:26.446Z,7.07
2017-12-16T04:19:54.597Z,7.47
2017-12-16T04:22:23.741Z,8.40
2017-12-16T04:24:51.992Z,9.15
2017-12-16T04:27:21.178Z,10.82
2017-12-16T04:29:50.092Z,7.78
2017-12-16T04:32:18.803Z,6.18
2017-12-16T04:34:46.955Z,6.75
2017-12-16T04:37:15.106Z,6.72
2017-12-16T04:39:43.280Z,6.65
2017-12-16T04:42:11.439Z,5.82
2017-12-16T04:44:42.009Z,5.57
2017-12-16T04:47:11.208Z,5.68
2017-12-16T04:49:39.364Z,4.95
2017-12-16T04:52:07.506Z,4.40
2017-12-16T04:54:36.296Z,4.00
2017-12-16T04:57:04.441Z,4.75
2017-12-16T04:59:33.241Z,3.50
2017-12-16T05:02:01.398Z,2.72
2017-12-16T05:04:29.589Z,2.70
2017-12-16T05:07:01.496Z,3.62
2017-12-16T05:09:29.767Z,3.80
2017-12-16T05:11:57.962Z,3.40
2017-12-16T05:14:26.562Z,3.95
2017-12-16T05:16:55.408Z,3.62
2017-12-16T05:19:23.571Z,3.60
2017-12-16T05:21:51.721Z,3.55
2017-12-16T05:24:21.014Z,3.00
2017-12-16T05:26:52.211Z,4.07
2017-12-16T05:29:20.666Z,3.30
2017-12-16T05:31:48.817Z,4.30
2017-12-16T05:34:17.449Z,4.60
2017-12-16T05:36:46.459Z,2.85
2017-12-16T05:39:14.995Z,5.18
2017-12-16T05:41:43.139Z,4.82
2017-12-16T05:44:11.303Z,5.43
2017-12-16T05:46:42.511Z,5.10
2017-12-16T05:49:10.781Z,4.53
2017-12-16T05:51:39.799Z,4.57
2017-12-16T05:54:07.963Z,6.10
2017-12-16T05:56:36.225Z,8.15
2017-12-16T05:59:04.378Z,7.95
2017-12-16T06:01:32.624Z,8.70
2017-12-16T06:04:00.802Z,8.32
2017-12-16T06:06:30.055Z,8.65
2017-12-16T06:08:58.986Z,7.90
2017-12-16T06:11:27.683Z,7.15
2017-12-16T06:13:55.849Z,7.20
2017-12-16T06:16:27.173Z,8.05
2017-12-16T06:18:56.145Z,7.03
2017-12-16T06:21:25.070Z,8.75
2017-12-16T06:23:54.926Z,8.15
2017-12-16T06:26:23.141Z,7.97
2017-12-16T06:28:51.307Z,7.25
2017-12-16T06:31:19.480Z,8.77
2017-12-16T06:33:47.934Z,8.23
2017-12-16T06:36:16.078Z,9.32
2017-12-16T06:38:44.267Z,8.40
2017-12-16T06:41:12.446Z,8.57
2017-12-16T06:43:41.183Z,7.60
2017-12-16T06:46:12.614Z,8.30
2017-12-16T06:48:40.778Z,9.15
2017-12-16T06:51:09.807Z,7.93
2017-12-16T06:53:37.962Z,7.40
2017-12-16T06:56:06.966Z,7.70
2017-12-16T06:58:35.122Z,7.30
2017-12-16T07:01:04.037Z,8.02
2017-12-16T07:03:33.763Z,6.85
2017-12-16T07:06:02.930Z,6.70
2017-12-16T07:08:31.104Z,7.95
2017-12-16T07:10:59.266Z,7.50
2017-12-16T07:13:27.818Z,8.52
2017-12-16T07:15:56.043Z,7.75
2017-12-16T07:18:24.802Z,7.00
2017-12-16T07:20:52.962Z,10.13
2017-12-16T07:23:21.130Z,10.20
2017-12-16T07:25:49.376Z,11.23
2017-12-16T07:28:18.218Z,12.23
2017-12-16T07:30:48.094Z,10.07
2017-12-16T07:33:16.262Z,10.10
2017-12-16T07:35:44.528Z,10.85
2017-12-16T07:38:16.884Z,8.73
2017-12-16T07:40:45.833Z,9.70
2017-12-16T07:43:13.984Z,9.82
2017-12-16T07:45:42.138Z,9.55
2017-12-16T07:48:10.290Z,9.95
2017-12-16T07:50:39.358Z,9.32
2017-12-16T07:53:07.515Z,9.50
2017-12-16T07:55:38.562Z,9.68
2017-12-16T07:58:07.585Z,8.70
2017-12-16T08:00:35.737Z,9.15
2017-12-16T08:03:04.114Z,11.65
2017-12-16T08:05:35.506Z,12.63
2017-12-16T08:08:03.824Z,11.85
2017-12-16T08:10:31.977Z,11.93
2017-12-16T08:13:00.143Z,11.73
2017-12-16T08:15:28.387Z,10.82
2017-12-16T08:17:57.342Z,9.25
2017-12-16T08:20:25.519Z,8.05
2017-12-16T08:22:53.697Z,8.45
2017-12-16T08:25:21.913Z,6.85
2017-12-16T08:27:50.067Z,5.62
2017-12-16T08:30:19.002Z,4.65
2017-12-16T08:32:47.176Z,4.80
2017-12-16T08:35:15.431Z,4.60
2017-12-16T08:37:43.574Z,5.45
2017-12-16T08:40:11.801Z,6.35
2017-12-16T08:42:39.957Z,6.80
2017-12-16T08:45:11.217Z,7.03
2017-12-16T08:47:39.492Z,5.97
2017-12-16T08:50:07.645Z,6.68
2017-12-16T08:52:35.824Z,6.65
2017-12-16T08:55:04.167Z,6.80
2017-12-16T08:57:32.343Z,7.65
2017-12-16T09:00:00.482Z,6.35
2017-12-16T09:02:28.650Z,8.05
2017-12-16T09:04:56.811Z,7.40
2017-12-16T09:07:24.971Z,6.80
2017-12-16T09:09:53.124Z,10.65
2017-12-16T09:12:21.286Z,6.87
2017-12-16T09:14:49.437Z,5.53
2017-12-16T09:17:18.995Z,7.70
2017-12-16T09:19:47.593Z,8.27
2017-12-16T09:22:15.856Z,8.05
2017-12-16T09:24:44.783Z,7.20
2017-12-16T09:27:13.576Z,6.03
2017-12-16T09:29:41.729Z,6.18
2017-12-16T09:32:13.618Z,8.18
2017-12-16T09:34:41.827Z,16.33
2017-12-16T09:37:10.745Z,12.15
2017-12-16T09:39:38.907Z,9.75
2017-12-16T09:42:07.062Z,9.23
2017-12-16T09:44:35.218Z,7.25
2017-12-16T09:47:03.379Z,7.43
2017-12-16T09:49:31.553Z,7.28
2017-12-16T09:51:59.711Z,5.80
2017-12-16T09:54:27.856Z,6.43
2017-12-16T09:56:56.160Z,7.45
2017-12-16T09:59:24.303Z,7.15
2017-12-16T10:01:52.454Z,7.30
2017-12-16T10:04:20.653Z,8.18
2017-12-16T10:06:48.929Z,7.43
2017-12-16T10:09:17.076Z,9.45
2017-12-16T10:11:45.571Z,8.32
2017-12-16T10:14:13.710Z,9.02
2017-12-16T10:16:41.934Z,10.07
2017-12-16T10:19:10.094Z,9.80
2017-12-16T10:21:39.030Z,10.30
2017-12-16T10:24:07.182Z,9.27
2017-12-16T10:26:37.306Z,10.00
2017-12-16T10:29:05.465Z,11.73
2017-12-16T10:31:33.624Z,15.05
2017-12-16T10:34:01.794Z,10.32
2017-12-16T10:36:30.803Z,10.02
2017-12-16T10:38:59.904Z,11.05
2017-12-16T10:41:28.063Z,11.05
2017-12-16T10:43:56.982Z,12.55
2017-12-16T10:46:30.941Z,12.82
2017-12-16T10:48:59.114Z,12.05
2017-12-16T10:51:27.282Z,11.43
2017-12-16T10:53:55.486Z,12.18
2017-12-16T10:56:24.411Z,13.02
2017-12-16T10:58:52.582Z,12.37
2017-12-16T11:01:20.760Z,13.43
2017-12-16T11:03:48.913Z,15.65
2017-12-16T11:06:20.776Z,14.80
2017-12-16T11:08:49.054Z,19.15
2017-12-16T11:11:17.230Z,13.70
2017-12-16T11:13:45.385Z,12.80
2017-12-16T11:16:13.691Z,14.00
2017-12-16T11:18:41.866Z,15.50
2017-12-16T11:21:10.785Z,13.55
2017-12-16T11:23:38.943Z,14.50
2017-12-16T11:26:07.185Z,15.52
2017-12-16T11:28:35.343Z,15.13
2017-12-16T11:31:04.264Z,13.80
2017-12-16T11:33:32.407Z,15.23
2017-12-16T11:36:01.628Z,12.18
2017-12-16T11:38:29.799Z,13.62
2017-12-16T11:40:57.979Z,13.52
2017-12-16T11:43:26.137Z,10.63
2017-12-16T11:45:54.418Z,11.90
2017-12-16T11:48:22.599Z,13.62
2017-12-16T11:50:50.754Z,12.90
2017-12-16T11:53:20.082Z,12.68
2017-12-16T11:55:48.366Z,13.50
2017-12-16T11:58:16.525Z,14.60
2017-12-16T12:00:44.682Z,10.68
2017-12-16T12:03:12.839Z,12.95
2017-12-16T12:05:41.068Z,11.60
2017-12-16T12:08:09.241Z,12.70
2017-12-16T12:10:37.391Z,12.48
2017-12-16T12:13:05.758Z,13.05
2017-12-16T12:15:34.762Z,12.20
2017-12-16T12:18:02.920Z,11.15
2017-12-16T12:20:31.876Z,12.18
2017-12-16T12:23:00.191Z,10.88
2017-12-16T12:25:28.488Z,11.77
2017-12-16T12:27:56.663Z,10.82
2017-12-16T12:30:24.837Z,12.48
2017-12-16T12:32:53.010Z,12.13
2017-12-16T12:35:22.437Z,10.60
2017-12-16T12:37:51.418Z,9.52
2017-12-16T12:40:19.578Z,9.23
2017-12-16T12:42:47.735Z,9.35
2017-12-16T12:45:16.750Z,10.57
2017-12-16T12:47:44.979Z,9.77
2017-12-16T12:50:13.162Z,8.73
2017-12-16T12:52:41.317Z,9.60
2017-12-16T12:55:10.143Z,11.00
2017-12-16T12:57:39.062Z,8.35
2017-12-16T13:00:07.214Z,8.10
2017-12-16T13:02:36.162Z,10.07
2017-12-16T13:05:04.419Z,10.32
2017-12-16T13:07:32.571Z,9.48
2017-12-16T13:10:00.747Z,11.05
2017-12-16T13:12:28.894Z,9.63
2017-12-16T13:14:57.909Z,11.05
2017-12-16T13:17:27.280Z,9.95
2017-12-16T13:19:55.435Z,11.40
2017-12-16T13:22:23.574Z,9.02
2017-12-16T13:24:51.758Z,10.18
2017-12-16T13:27:19.906Z,10.30
2017-12-16T13:29:48.068Z,10.98
2017-12-16T13:32:18.250Z,9.65
2017-12-16T13:34:46.421Z,10.90
2017-12-16T13:37:14.574Z,10.10
2017-12-16T13:39:42.784Z,10.15
2017-12-16T13:42:10.909Z,9.15
2017-12-16T13:44:39.115Z,8.52
2017-12-16T13:47:09.810Z,6.45
2017-12-16T13:49:37.964Z,11.05
2017-12-16T13:52:06.889Z,9.18
2017-12-16T13:54:35.047Z,8.75
2017-12-16T13:57:03.523Z,10.35
2017-12-16T13:59:31.630Z,9.60
2017-12-16T14:01:59.790Z,9.38
2017-12-16T14:04:27.958Z,10.63
2017-12-16T14:06:56.113Z,9.23
2017-12-16T14:09:24.543Z,8.50
2017-12-16T14:11:52.687Z,10.45
2017-12-16T14:14:20.865Z,10.90
2017-12-16T14:16:49.187Z,9.18
2017-12-16T14:19:17.924Z,9.45
2017-12-16T14:21:46.110Z,10.45
2017-12-16T14:24:14.344Z,10.32
2017-12-16T14:26:42.633Z,9.68
2017-12-16T14:29:11.549Z,8.95
2017-12-16T14:31:40.133Z,7.45
2017-12-16T14:34:08.270Z,9.60
2017-12-16T14:36:37.210Z,9.13
2017-12-16T14:39:05.365Z,9.65
2017-12-16T14:41:33.528Z,9.90
2017-12-16T14:44:01.737Z,10.60
2017-12-16T14:46:29.898Z,10.50
2017-12-16T14:48:58.062Z,10.20
2017-12-16T14:51:26.215Z,11.23
2017-12-16T14:53:54.376Z,11.23
2017-12-16T14:56:23.376Z,11.05
2017-12-16T14:58:52.297Z,11.07
2017-12-16T15:01:20.464Z,11.40
2017-12-16T15:03:48.616Z,12.65
2017-12-16T15:06:17.649Z,12.73
2017-12-16T15:08:46.592Z,11.63
2017-12-16T15:11:14.762Z,12.10
2017-12-16T15:13:42.922Z,12.57
2017-12-16T15:16:11.065Z,11.70
2017-12-16T15:18:39.234Z,13.73
2017-12-16T15:21:07.386Z,13.98
2017-12-16T15:23:35.541Z,11.63
2017-12-16T15:26:03.735Z,12.37
2017-12-16T15:28:31.941Z,12.65
2017-12-16T15:31:01.386Z,13.30
2017-12-16T15:33:29.541Z,11.40
2017-12-16T15:35:57.708Z,12.45
2017-12-16T15:38:25.874Z,13.82
2017-12-16T15:40:54.023Z,13.60
2017-12-16T15:43:23.052Z,14.32
2017-12-16T15:45:51.218Z,17.20
2017-12-16T15:48:19.378Z,14.23
2017-12-16T15:50:48.328Z,13.70
2017-12-16T15:53:16.486Z,14.25
2017-12-16T15:55:45.503Z,14.63
2017-12-16T15:58:13.665Z,14.65
2017-12-16T16:00:42.594Z,11.55
2017-12-16T16:03:10.749Z,11.07
2017-12-16T16:05:39.722Z,13.13
2017-12-16T16:08:08.649Z,13.55
2017-12-16T16:10:37.184Z,13.60
2017-12-16T16:13:05.336Z,13.35
2017-12-16T16:15:34.586Z,14.75
2017-12-16T16:18:02.762Z,12.65
2017-12-16T16:20:30.906Z,11.52
2017-12-16T16:22:59.062Z,10.43
2017-12-16T16:25:27.287Z,11.00
2017-12-16T16:27:55.441Z,11.93
2017-12-16T16:30:23.589Z,10.52
2017-12-16T16:32:51.740Z,12.07
2017-12-16T16:35:19.985Z,10.85
2017-12-16T16:37:48.130Z,9.73
2017-12-16T16:40:17.055Z,9.98
2017-12-16T16:42:45.195Z,12.43
2017-12-16T16:45:14.166Z,10.10
2017-12-16T16:47:42.338Z,11.30
2017-12-16T16:50:10.494Z,10.85
2017-12-16T16:52:38.654Z,11.75
2017-12-16T16:55:13.942Z,11.75
2017-12-16T16:57:42.089Z,10.80
2017-12-16T17:00:10.264Z,11.23
2017-12-16T17:02:38.436Z,9.95
2017-12-16T17:05:06.681Z,9.82
2017-12-16T17:07:34.883Z,10.73
2017-12-16T17:10:03.033Z,12.07
2017-12-16T17:12:31.190Z,10.85
2017-12-16T17:15:00.100Z,11.90
2017-12-16T17:17:29.962Z,12.15
2017-12-16T17:19:58.106Z,9.50
2017-12-16T17:22:26.277Z,10.60
2017-12-16T17:24:56.582Z,10.30
2017-12-16T17:27:24.830Z,11.00
2017-12-16T17:29:53.764Z,13.30
2017-12-16T17:32:23.462Z,14.75
2017-12-16T17:34:51.725Z,15.77
2017-12-16T17:37:19.874Z,8.75
2017-12-16T17:39:48.799Z,11.00
2017-12-16T17:42:17.006Z,10.85
2017-12-16T17:44:45.170Z,11.35
2017-12-16T17:47:13.337Z,13.10
2017-12-16T17:49:41.496Z,13.75
2017-12-16T17:52:10.363Z,16.30
2017-12-16T17:54:39.303Z,18.33
2017-12-16T17:57:07.473Z,14.85
2017-12-16T17:59:35.654Z,11.85
2017-12-16T18:02:03.814Z,10.52
2017-12-16T18:04:31.979Z,11.63
2017-12-16T18:07:00.206Z,13.65
2017-12-16T18:09:28.358Z,13.85
2017-12-16T18:11:57.439Z,12.25
2017-12-16T18:14:25.589Z,10.60
2017-12-16T18:16:54.710Z,11.02
2017-12-16T18:19:22.912Z,10.23
2017-12-16T18:21:51.943Z,12.43
2017-12-16T18:24:20.097Z,9.70
2017-12-16T18:26:49.018Z,10.13
2017-12-16T18:29:17.198Z,13.38
2017-12-16T18:31:45.363Z,10.93
2017-12-16T18:34:13.763Z,10.65
2017-12-16T18:36:42.982Z,11.27
2017-12-16T18:39:11.594Z,11.70
2017-12-16T18:41:39.769Z,10.18
2017-12-16T18:44:07.935Z,11.02
2017-12-16T18:46:39.913Z,12.07
2017-12-16T18:49:08.078Z,11.27
2017-12-16T18:51:38.946Z,11.60
2017-12-16T18:54:07.113Z,10.93
2017-12-16T18:56:35.301Z,10.90
2017-12-16T18:59:03.458Z,14.65
2017-12-16T19:01:32.366Z,13.85
2017-12-16T19:04:00.523Z,10.73
2017-12-16T19:06:28.794Z,13.90
2017-12-16T19:08:56.950Z,12.32
2017-12-16T19:11:25.136Z,10.80
2017-12-16T19:13:53.307Z,12.32
2017-12-16T19:16:21.501Z,11.98
2017-12-16T19:18:49.653Z,11.65
2017-12-16T19:21:18.587Z,11.65
2017-12-16T19:23:46.794Z,11.95
2017-12-16T19:26:15.010Z,11.45
2017-12-16T19:28:43.172Z,12.07
2017-12-16T19:31:12.094Z,11.82
2017-12-16T19:33:40.248Z,12.25
2017-12-16T19:36:11.808Z,13.48
2017-12-16T19:38:43.568Z,12.90
2017-12-16T19:41:11.740Z,13.55
2017-12-16T19:43:40.950Z,13.07
2017-12-16T19:46:09.257Z,12.77
2017-12-16T19:48:37.479Z,12.60
2017-12-16T19:51:06.399Z,11.32
2017-12-16T19:53:34.577Z,13.88
2017-12-16T19:56:06.201Z,11.65
2017-12-16T19:58:34.347Z,11.05
2017-12-16T20:01:02.616Z,12.93
2017-12-16T20:03:30.816Z,12.63
2017-12-16T20:05:58.960Z,12.02
2017-12-16T20:08:27.153Z,10.73
2017-12-16T20:10:55.310Z,11.82
2017-12-16T20:13:23.462Z,10.48
2017-12-16T20:15:54.678Z,12.57
2017-12-16T20:18:24.811Z,12.10
2017-12-16T20:20:52.985Z,12.07
2017-12-16T20:23:21.160Z,12.40
2017-12-16T20:25:49.422Z,13.57
2017-12-16T20:28:17.591Z,13.65
2017-12-16T20:30:45.772Z,13.57
2017-12-16T20:33:13.940Z,14.02
2017-12-16T20:35:46.302Z,12.35
2017-12-16T20:38:15.217Z,13.25
2017-12-16T20:40:43.381Z,14.77
2017-12-16T20:43:11.542Z,13.40
2017-12-16T20:45:40.555Z,14.45
2017-12-16T20:48:08.716Z,16.30
2017-12-16T20:50:36.865Z,13.90
2017-12-16T20:53:05.042Z,15.32
2017-12-16T20:55:35.072Z,13.20
2017-12-16T20:58:03.294Z,13.35
2017-12-16T21:00:32.362Z,14.20
2017-12-16T21:03:00.521Z,16.83
2017-12-16T21:05:28.833Z,16.00
2017-12-16T21:07:57.027Z,16.67
2017-12-16T21:10:25.858Z,15.75
2017-12-16T21:12:53.997Z,15.90
2017-12-16T21:15:22.229Z,13.77
2017-12-16T21:17:50.394Z,15.70
2017-12-16T21:20:18.539Z,14.30
2017-12-16T21:22:46.715Z,15.68
2017-12-16T21:25:16.832Z,15.45
2017-12-16T21:27:45.017Z,15.85
2017-12-16T21:30:14.150Z,15.30
2017-12-16T21:32:42.347Z,14.93
2017-12-16T21:35:13.518Z,15.02
2017-12-16T21:37:41.655Z,13.75
2017-12-16T21:40:10.510Z,12.95
2017-12-16T21:42:39.431Z,12.98
2017-12-16T21:45:08.662Z,11.75
2017-12-16T21:47:37.741Z,14.95
2017-12-16T21:50:07.553Z,12.93
2017-12-16T21:52:35.771Z,13.98
2017-12-16T21:55:07.752Z,13.35
2017-12-16T21:57:36.197Z,13.48
2017-12-16T22:00:05.336Z,13.65
2017-12-16T22:02:34.937Z,11.82
2017-12-16T22:05:04.195Z,13.50
2017-12-16T22:07:32.365Z,12.05
2017-12-16T22:10:00.593Z,11.40
2017-12-16T22:12:28.778Z,13.00
2017-12-16T22:14:56.952Z,12.07
2017-12-16T22:17:26.753Z,15.77
2017-12-16T22:19:54.950Z,11.68
2017-12-16T22:22:23.414Z,11.90
2017-12-16T22:24:51.673Z,12.35
2017-12-16T22:27:19.909Z,10.68
2017-12-16T22:29:48.084Z,11.52
2017-12-16T22:32:16.245Z,12.70
2017-12-16T22:34:44.442Z,11.60
2017-12-16T22:37:12.594Z,11.98
2017-12-16T22:39:40.910Z,13.32
2017-12-16T22:42:09.122Z,12.02
2017-12-16T22:44:37.270Z,11.35
2017-12-16T22:47:06.851Z,12.20
2017-12-16T22:49:35.072Z,10.93
2017-12-16T22:52:03.214Z,11.48
2017-12-16T22:54:31.381Z,11.90
2017-12-16T22:56:59.538Z,14.65
2017-12-16T22:59:28.066Z,14.55
2017-12-16T23:01:56.218Z,12.63
2017-12-16T23:04:25.621Z,11.12
2017-12-16T23:06:56.014Z,12.50
2017-12-16T23:09:24.200Z,12.23
2017-12-16T23:11:52.374Z,12.10
2017-12-16T23:14:20.534Z,15.13
2017-12-16T23:16:52.293Z,13.48
2017-12-16T23:19:26.268Z,13.35
2017-12-16T23:21:54.457Z,13.62
2017-12-16T23:24:35.455Z,13.25
2017-12-16T23:27:03.639Z,15.20
2017-12-16T23:29:31.852Z,14.90
2017-12-16T23:32:00.084Z,13.93
2017-12-16T23:34:29.042Z,12.48
2017-12-16T23:36:57.250Z,12.73
2017-12-16T23:39:26.057Z,14.13
2017-12-16T23:41:54.998Z,14.85
2017-12-16T23:44:23.207Z,14.63
2017-12-16T23:46:52.865Z,14.25
2017-12-16T23:49:21.513Z,14.05
2017-12-16T23:51:53.537Z,16.83
2017-12-16T23:54:23.182Z,14.55
2017-12-16T23:56:53.204Z,15.15
2017-12-16T23:59:23.062Z,14.80
